Time;durP1;ratioP1;P1;durP2;ratioP2;P2;SDS_P1;SDS_P2;PMS_P1;PMS_P2;Temp;Humidity;BMP_temperature;BMP_pressure;BME280_temperature;BME280_humidity;BME280_pressure;Samples;Min_cycle;Max_cycle;Signal;HPM_P1;HPM_P2
2023/09/19 00:02:13;;;;;;;;;;;19.50;80.70;;;;;;5022407;28;19936;-70
2023/09/19 00:04:46;;;;;;;;;;;19.50;80.80;;;;;;5022004;28;19933;-71
2023/09/19 00:07:21;;;;;;;;;;;19.50;80.80;;;;;;5021843;28;20307;-71
2023/09/19 00:09:54;;;;;;;;;;;19.50;80.90;;;;;;5025513;28;19932;-71
2023/09/19 00:12:29;;;;;;;;;;;19.60;80.80;;;;;;5025567;28;19940;-71
2023/09/19 00:15:03;;;;;;;;;;;19.50;80.70;;;;;;5026126;28;19979;-71
2023/09/19 00:17:37;;;;;;;;;;;19.50;80.80;;;;;;5024788;28;19936;-71
2023/09/19 00:20:12;;;;;;;;;;;19.50;80.80;;;;;;5024187;28;20392;-67
2023/09/19 00:22:45;;;;;;;;;;;19.50;80.70;;;;;;5025360;28;19929;-68
2023/09/19 00:25:18;;;;;;;;;;;19.50;80.70;;;;;;5024866;28;19924;-69
2023/09/19 00:27:52;;;;;;;;;;;19.60;80.80;;;;;;5028474;28;19929;-70
2023/09/19 00:30:27;;;;;;;;;;;19.60;80.70;;;;;;5025417;28;19936;-69
2023/09/19 00:33:02;;;;;;;;;;;19.50;80.80;;;;;;5024536;28;19929;-72
2023/09/19 00:35:47;;;;;;;;;;;19.50;81.00;;;;;;5022159;28;19930;-73
2023/09/19 00:38:22;;;;;;;;;;;19.50;81.00;;;;;;5023518;28;20368;-73
2023/09/19 00:40:56;;;;;;;;;;;19.40;81.10;;;;;;5027464;28;19976;-73
2023/09/19 00:43:34;;;;;;;;;;;19.40;81.10;;;;;;5023066;28;19971;-72
2023/09/19 00:46:07;;;;;;;;;;;19.40;81.40;;;;;;5026580;28;19933;-72
2023/09/19 00:48:43;;;;;;;;;;;19.50;81.20;;;;;;5026177;28;19932;-74
2023/09/19 00:51:19;;;;;;;;;;;19.40;81.40;;;;;;5009047;28;19940;-74
2023/09/19 00:53:52;;;;;;;;;;;19.50;81.20;;;;;;5025933;28;19937;-74
2023/09/19 00:56:25;;;;;;;;;;;19.50;81.10;;;;;;5024967;28;20483;-72
2023/09/19 00:58:59;;;;;;;;;;;19.40;81.10;;;;;;5027500;28;20001;-71
2023/09/19 01:01:33;;;;;;;;;;;19.40;81.30;;;;;;5010917;28;19933;-73
2023/09/19 01:04:06;;;;;;;;;;;19.40;81.40;;;;;;5024953;28;19929;-72
2023/09/19 01:06:40;;;;;;;;;;;19.40;81.40;;;;;;5013371;28;19929;-73
2023/09/19 01:09:08;;;;;;;;;;;19.40;81.40;;;;;;5026575;28;19929;-74
2023/09/19 01:11:43;;;;;;;;;;;19.40;81.30;;;;;;5012954;28;20430;-72
2023/09/19 01:14:22;;;;;;;;;;;19.40;81.20;;;;;;5023726;28;19983;-71
2023/09/19 01:16:59;;;;;;;;;;;19.40;81.40;;;;;;5023352;28;20018;-73
2023/09/19 01:19:56;;;;;;;;;;;19.40;81.30;;;;;;5027868;28;19935;-72
2023/09/19 01:22:34;;;;;;;;;;;19.40;81.40;;;;;;5020391;28;20363;-73
2023/09/19 01:25:34;;;;;;;;;;;19.40;81.30;;;;;;5024713;28;20323;-72
2023/09/19 01:28:10;;;;;;;;;;;19.40;81.50;;;;;;4991643;28;20348;-72
2023/09/19 01:30:45;;;;;;;;;;;19.40;81.50;;;;;;5025478;28;20043;-74
2023/09/19 01:33:19;;;;;;;;;;;19.40;81.60;;;;;;5024221;28;19936;-73
2023/09/19 01:35:53;;;;;;;;;;;19.40;81.60;;;;;;5025675;28;19979;-73
2023/09/19 01:38:27;;;;;;;;;;;19.40;81.60;;;;;;5019957;28;19972;-73
2023/09/19 01:41:04;;;;;;;;;;;19.30;81.50;;;;;;5026778;28;20021;-73
2023/09/19 01:43:39;;;;;;;;;;;19.30;81.60;;;;;;5026166;28;19925;-73
2023/09/19 01:46:16;;;;;;;;;;;19.30;81.90;;;;;;5012283;28;19937;-72
2023/09/19 01:48:55;;;;;;;;;;;19.30;82.00;;;;;;5025245;28;20376;-73
2023/09/19 01:51:33;;;;;;;;;;;19.30;81.90;;;;;;5023407;28;19928;-75
2023/09/19 01:54:09;;;;;;;;;;;19.30;81.80;;;;;;5026615;28;19933;-74
2023/09/19 01:56:46;;;;;;;;;;;19.30;81.60;;;;;;5025599;28;19932;-74
2023/09/19 01:59:23;;;;;;;;;;;19.30;81.90;;;;;;5021378;28;19985;-75
2023/09/19 02:01:58;;;;;;;;;;;19.30;82.10;;;;;;5024996;28;19933;-72
2023/09/19 02:04:35;;;;;;;;;;;19.20;82.00;;;;;;5029926;28;19972;-74
2023/09/19 02:07:08;;;;;;;;;;;19.20;82.10;;;;;;5026281;28;20438;-73
2023/09/19 02:09:42;;;;;;;;;;;19.20;82.00;;;;;;5024880;28;20364;-72
2023/09/19 02:12:15;;;;;;;;;;;19.20;81.90;;;;;;5024890;28;20304;-74
2023/09/19 02:14:49;;;;;;;;;;;19.20;82.10;;;;;;5025991;28;20392;-72
2023/09/19 02:17:25;;;;;;;;;;;19.10;82.20;;;;;;5024762;28;19948;-72
2023/09/19 02:20:00;;;;;;;;;;;19.10;82.30;;;;;;5025064;28;19937;-72
2023/09/19 02:22:33;;;;;;;;;;;19.20;82.30;;;;;;5011532;28;19933;-72
2023/09/19 02:25:07;;;;;;;;;;;19.20;82.20;;;;;;5024426;28;19925;-72
2023/09/19 02:27:40;;;;;;;;;;;19.20;82.20;;;;;;5024986;28;19925;-73
2023/09/19 02:30:15;;;;;;;;;;;19.20;82.10;;;;;;5025320;28;20775;-72
2023/09/19 02:32:50;;;;;;;;;;;19.10;82.30;;;;;;5023369;28;19939;-72
2023/09/19 02:35:25;;;;;;;;;;;19.10;82.30;;;;;;5027949;28;20044;-73
2023/09/19 02:37:58;;;;;;;;;;;19.10;82.20;;;;;;5023784;28;19926;-73
2023/09/19 02:40:31;;;;;;;;;;;19.20;82.30;;;;;;5022791;28;19933;-73
2023/09/19 02:43:04;;;;;;;;;;;19.20;82.50;;;;;;5020216;28;20400;-72
2023/09/19 02:45:37;;;;;;;;;;;19.10;82.50;;;;;;5015807;28;20421;-73
2023/09/19 02:48:12;;;;;;;;;;;19.10;82.50;;;;;;5022374;28;20299;-72
2023/09/19 02:50:46;;;;;;;;;;;19.10;82.50;;;;;;5022929;28;19925;-72
2023/09/19 02:53:19;;;;;;;;;;;19.10;82.50;;;;;;5023657;28;20407;-72
2023/09/19 02:55:54;;;;;;;;;;;19.10;82.60;;;;;;5022274;28;19925;-70
2023/09/19 02:58:27;;;;;;;;;;;19.10;82.60;;;;;;5020360;28;19969;-70
2023/09/19 03:01:00;;;;;;;;;;;19.10;82.70;;;;;;5021262;28;19933;-72
2023/09/19 03:03:36;;;;;;;;;;;19.10;82.60;;;;;;5023074;28;19925;-71
2023/09/19 03:06:09;;;;;;;;;;;19.10;82.70;;;;;;5024836;28;19925;-71
2023/09/19 03:08:43;;;;;;;;;;;19.00;82.70;;;;;;5024378;28;19926;-72
2023/09/19 03:11:18;;;;;;;;;;;19.00;82.80;;;;;;5018094;28;19925;-71
2023/09/19 03:13:56;;;;;;;;;;;19.00;82.80;;;;;;5025912;28;19945;-70
2023/09/19 03:16:30;;;;;;;;;;;18.90;82.80;;;;;;5017667;28;19933;-71
2023/09/19 03:19:05;;;;;;;;;;;19.00;82.70;;;;;;5026840;28;19932;-71
2023/09/19 03:21:38;;;;;;;;;;;18.90;82.70;;;;;;5022748;28;19933;-69
2023/09/19 03:24:12;;;;;;;;;;;18.90;82.70;;;;;;5026556;28;19929;-70
2023/09/19 03:26:59;;;;;;;;;;;18.90;82.80;;;;;;5023851;28;19925;-71
2023/09/19 03:29:32;;;;;;;;;;;18.80;83.00;;;;;;5002807;28;19933;-73
2023/09/19 03:32:09;;;;;;;;;;;18.80;82.90;;;;;;5015024;28;19939;-73
2023/09/19 03:34:44;;;;;;;;;;;18.80;82.80;;;;;;5022362;28;19933;-71
2023/09/19 03:37:17;;;;;;;;;;;18.70;83.10;;;;;;5022664;28;20047;-71
2023/09/19 03:39:52;;;;;;;;;;;18.60;83.20;;;;;;5026379;28;20373;-71
2023/09/19 03:42:26;;;;;;;;;;;18.60;83.20;;;;;;5009405;28;20381;-73
2023/09/19 03:45:00;;;;;;;;;;;18.60;83.30;;;;;;5021903;28;19929;-72
2023/09/19 03:47:34;;;;;;;;;;;18.60;83.40;;;;;;5026784;28;19925;-73
2023/09/19 03:50:11;;;;;;;;;;;18.60;83.30;;;;;;5021581;28;19929;-71
2023/09/19 03:52:45;;;;;;;;;;;18.50;83.30;;;;;;5018879;28;20747;-73
2023/09/19 03:55:18;;;;;;;;;;;18.50;83.60;;;;;;5023347;28;20032;-72
2023/09/19 03:57:52;;;;;;;;;;;18.50;83.60;;;;;;5023818;28;19933;-72
2023/09/19 04:00:27;;;;;;;;;;;18.50;83.70;;;;;;5009526;28;20012;-73
2023/09/19 04:03:05;;;;;;;;;;;18.40;84.00;;;;;;5006307;28;19933;-67
2023/09/19 04:05:40;;;;;;;;;;;18.40;84.00;;;;;;5020033;28;19933;-67
2023/09/19 04:08:13;;;;;;;;;;;18.40;84.00;;;;;;5023338;28;20385;-67
2023/09/19 04:10:46;;;;;;;;;;;18.30;84.40;;;;;;5024014;28;20285;-68
2023/09/19 04:13:19;;;;;;;;;;;18.40;84.20;;;;;;5021963;28;19926;-69
2023/09/19 04:15:52;;;;;;;;;;;18.40;84.00;;;;;;5022005;28;19925;-67
2023/09/19 04:18:25;;;;;;;;;;;18.30;84.20;;;;;;5021408;28;19925;-68
2023/09/19 04:20:55;;;;;;;;;;;18.30;84.10;;;;;;5018811;28;19964;-66
2023/09/19 04:23:28;;;;;;;;;;;18.30;84.20;;;;;;5024082;28;19934;-68
2023/09/19 04:26:03;;;;;;;;;;;18.30;84.30;;;;;;5022915;28;19929;-69
2023/09/19 04:28:38;;;;;;;;;;;18.20;84.40;;;;;;5006054;28;19929;-69
2023/09/19 04:31:11;;;;;;;;;;;18.30;84.30;;;;;;5022676;28;19948;-68
2023/09/19 04:33:44;;;;;;;;;;;18.20;84.40;;;;;;5025161;28;19948;-68
2023/09/19 04:36:19;;;;;;;;;;;18.20;84.50;;;;;;5026653;28;20304;-67
2023/09/19 04:38:53;;;;;;;;;;;18.20;84.50;;;;;;5026167;28;19925;-68
2023/09/19 04:41:26;;;;;;;;;;;18.20;84.40;;;;;;5022022;28;19925;-67
2023/09/19 04:43:59;;;;;;;;;;;18.20;84.40;;;;;;5022610;28;19929;-69
2023/09/19 04:46:32;;;;;;;;;;;18.20;84.30;;;;;;5020020;28;20373;-68
2023/09/19 04:49:05;;;;;;;;;;;18.10;84.30;;;;;;5022341;28;20443;-68
2023/09/19 04:51:40;;;;;;;;;;;18.10;84.50;;;;;;5022270;28;19935;-68
2023/09/19 04:54:14;;;;;;;;;;;18.10;84.40;;;;;;5021260;28;19965;-69
2023/09/19 04:56:47;;;;;;;;;;;18.10;84.40;;;;;;5026569;28;19925;-68
2023/09/19 04:59:20;;;;;;;;;;;18.10;84.60;;;;;;5025927;28;19940;-69
2023/09/19 05:01:53;;;;;;;;;;;18.10;84.40;;;;;;5023895;28;20422;-69
2023/09/19 05:04:27;;;;;;;;;;;18.10;84.50;;;;;;5024767;28;19968;-67
2023/09/19 05:07:03;;;;;;;;;;;18.10;84.70;;;;;;5025664;28;20478;-69
2023/09/19 05:09:37;;;;;;;;;;;18.10;84.60;;;;;;5024653;28;19949;-68
2023/09/19 05:12:11;;;;;;;;;;;18.10;84.40;;;;;;5025762;28;19987;-73
2023/09/19 05:14:44;;;;;;;;;;;18.10;84.60;;;;;;5025393;28;20035;-74
2023/09/19 05:17:17;;;;;;;;;;;18.10;84.60;;;;;;5024311;28;19932;-74
2023/09/19 05:19:50;;;;;;;;;;;18.10;84.40;;;;;;5023416;28;19969;-74
2023/09/19 05:22:25;;;;;;;;;;;18.10;84.40;;;;;;5024925;28;19933;-75
2023/09/19 05:24:58;;;;;;;;;;;18.10;84.50;;;;;;5025573;28;19960;-75
2023/09/19 05:27:31;;;;;;;;;;;18.10;84.50;;;;;;5025932;28;19968;-73
2023/09/19 05:30:06;;;;;;;;;;;18.10;84.80;;;;;;5024473;28;19939;-74
2023/09/19 05:32:39;;;;;;;;;;;18.10;84.50;;;;;;5021661;28;19961;-73
2023/09/19 05:35:09;;;;;;;;;;;18.10;84.70;;;;;;5025011;28;19932;-74
2023/09/19 05:37:44;;;;;;;;;;;18.10;84.80;;;;;;5024307;28;19936;-74
2023/09/19 05:40:24;;;;;;;;;;;18.10;84.30;;;;;;5024835;28;20373;-73
2023/09/19 05:42:58;;;;;;;;;;;18.10;84.10;;;;;;5024372;28;20052;-74
2023/09/19 05:45:31;;;;;;;;;;;18.20;84.00;;;;;;5024914;28;19984;-73
2023/09/19 05:48:11;;;;;;;;;;;18.20;83.80;;;;;;5024679;28;19929;-75
2023/09/19 05:50:46;;;;;;;;;;;18.10;83.60;;;;;;5025261;28;20388;-73
2023/09/19 05:53:21;;;;;;;;;;;18.10;83.80;;;;;;5023638;28;19929;-73
2023/09/19 05:55:55;;;;;;;;;;;18.10;83.50;;;;;;5022510;28;19933;-74
2023/09/19 05:58:28;;;;;;;;;;;18.10;83.10;;;;;;5024184;28;20323;-73
2023/09/19 06:01:01;;;;;;;;;;;18.10;83.10;;;;;;5024365;28;19979;-74
2023/09/19 06:03:35;;;;;;;;;;;18.10;83.00;;;;;;5024986;28;19936;-73
2023/09/19 06:06:09;;;;;;;;;;;18.10;82.90;;;;;;5024605;28;19936;-74
2023/09/19 06:08:45;;;;;;;;;;;18.10;83.30;;;;;;5022911;28;19925;-73
2023/09/19 06:11:20;;;;;;;;;;;18.10;82.90;;;;;;5021354;28;19929;-73
2023/09/19 06:13:53;;;;;;;;;;;18.10;82.90;;;;;;5024937;28;19925;-74
2023/09/19 06:16:26;;;;;;;;;;;18.10;82.80;;;;;;5024211;28;19929;-73
2023/09/19 06:18:59;;;;;;;;;;;18.10;82.30;;;;;;5025399;28;19929;-74
2023/09/19 06:21:32;;;;;;;;;;;18.10;82.20;;;;;;5026320;28;20016;-75
2023/09/19 06:24:07;;;;;;;;;;;18.10;82.10;;;;;;5025450;28;19925;-66
2023/09/19 06:26:40;;;;;;;;;;;18.20;81.60;;;;;;5027188;28;19952;-65
2023/09/19 06:29:14;;;;;;;;;;;18.10;81.80;;;;;;5023507;28;19925;-67
2023/09/19 06:31:47;;;;;;;;;;;18.10;81.70;;;;;;5027445;28;19929;-66
2023/09/19 06:34:20;;;;;;;;;;;18.10;81.60;;;;;;5027095;28;19925;-66
2023/09/19 06:36:55;;;;;;;;;;;18.10;81.60;;;;;;5027481;28;19932;-66
2023/09/19 06:39:31;;;;;;;;;;;18.20;81.40;;;;;;5028055;28;19933;-67
2023/09/19 06:42:04;;;;;;;;;;;18.20;81.60;;;;;;5023286;28;20027;-66
2023/09/19 06:44:37;;;;;;;;;;;18.20;81.60;;;;;;5025983;28;19996;-67
2023/09/19 06:47:10;;;;;;;;;;;18.30;81.60;;;;;;5022763;28;19933;-66
2023/09/19 06:49:44;;;;;;;;;;;18.30;81.60;;;;;;5025708;28;19936;-65
2023/09/19 06:52:21;;;;;;;;;;;18.20;81.60;;;;;;5022913;28;19968;-66
2023/09/19 06:54:56;;;;;;;;;;;18.20;81.70;;;;;;5019418;28;19933;-67
2023/09/19 06:57:30;;;;;;;;;;;18.20;81.50;;;;;;5025205;28;20011;-64
2023/09/19 07:00:09;;;;;;;;;;;18.20;81.10;;;;;;5023849;28;19925;-66
2023/09/19 07:02:42;;;;;;;;;;;18.20;81.00;;;;;;5027687;28;19925;-65
2023/09/19 07:05:16;;;;;;;;;;;18.30;81.00;;;;;;5023787;28;19960;-67
2023/09/19 07:07:49;;;;;;;;;;;18.30;81.00;;;;;;5025853;28;20361;-67
2023/09/19 07:10:25;;;;;;;;;;;18.40;80.80;;;;;;5025227;28;19933;-67
2023/09/19 07:12:59;;;;;;;;;;;18.40;80.70;;;;;;5032085;28;19929;-76
2023/09/19 07:15:35;;;;;;;;;;;18.40;80.50;;;;;;5029206;28;20368;-67
2023/09/19 07:18:10;;;;;;;;;;;18.50;80.40;;;;;;5026086;28;20007;-67
2023/09/19 07:20:48;;;;;;;;;;;18.50;80.10;;;;;;5024372;28;19929;-67
2023/09/19 07:23:22;;;;;;;;;;;18.50;80.10;;;;;;5026629;28;19947;-66
2023/09/19 07:25:58;;;;;;;;;;;18.60;79.90;;;;;;5027441;28;19988;-67
2023/09/19 07:28:32;;;;;;;;;;;18.60;79.90;;;;;;5026476;28;19929;-67
2023/09/19 07:31:06;;;;;;;;;;;18.70;79.80;;;;;;5025097;28;19925;-66
2023/09/19 07:33:40;;;;;;;;;;;18.70;79.40;;;;;;5023881;28;19932;-71
2023/09/19 07:36:13;;;;;;;;;;;18.70;79.30;;;;;;5025709;28;19960;-74
2023/09/19 07:38:46;;;;;;;;;;;18.60;79.50;;;;;;5031811;28;19945;-73
2023/09/19 07:41:21;;;;;;;;;;;18.60;79.20;;;;;;5028437;28;19971;-72
2023/09/19 07:43:54;;;;;;;;;;;18.60;79.30;;;;;;5038681;28;19952;-71
2023/09/19 07:46:27;;;;;;;;;;;18.60;79.20;;;;;;5038035;28;19934;-72
2023/09/19 07:49:00;;;;;;;;;;;18.70;79.00;;;;;;5042370;28;19937;-72
2023/09/19 07:51:34;;;;;;;;;;;18.70;78.60;;;;;;5040692;28;19929;-71
2023/09/19 07:54:08;;;;;;;;;;;18.70;78.70;;;;;;5041924;28;19926;-70
2023/09/19 07:56:42;;;;;;;;;;;18.80;78.80;;;;;;5037942;28;19965;-74
2023/09/19 07:59:16;;;;;;;;;;;18.80;78.70;;;;;;5039915;28;19926;-72
2023/09/19 08:01:48;;;;;;;;;;;18.70;78.50;;;;;;5037235;28;19925;-68
2023/09/19 08:04:21;;;;;;;;;;;18.80;78.00;;;;;;5037581;28;19924;-69
2023/09/19 08:06:58;;;;;;;;;;;18.80;77.70;;;;;;5038863;28;19925;-68
2023/09/19 08:09:33;;;;;;;;;;;18.80;77.60;;;;;;5038628;28;19925;-68
2023/09/19 08:12:10;;;;;;;;;;;18.90;77.50;;;;;;5038935;28;19926;-68
2023/09/19 08:14:43;;;;;;;;;;;19.00;77.50;;;;;;5038358;28;19925;-68
2023/09/19 08:17:16;;;;;;;;;;;19.00;76.70;;;;;;5043378;28;19909;-68
2023/09/19 08:19:52;;;;;;;;;;;19.10;76.30;;;;;;5041962;28;19981;-69
2023/09/19 08:22:27;;;;;;;;;;;19.00;76.00;;;;;;5046063;28;19909;-69
2023/09/19 08:24:59;;;;;;;;;;;19.00;76.10;;;;;;5044002;28;19921;-69
2023/09/19 08:27:36;;;;;;;;;;;19.10;75.90;;;;;;5042736;28;19909;-68
2023/09/19 08:30:10;;;;;;;;;;;19.20;75.20;;;;;;5041858;28;19933;-67
2023/09/19 08:32:37;;;;;;;;;;;19.20;74.80;;;;;;5045360;28;20304;-68
2023/09/19 08:35:11;;;;;;;;;;;19.20;74.40;;;;;;5044521;28;19928;-68
2023/09/19 08:37:46;;;;;;;;;;;19.10;74.10;;;;;;5042479;28;19929;-69
2023/09/19 08:40:13;;;;;;;;;;;19.20;74.10;;;;;;5043226;28;20388;-68
2023/09/19 08:42:51;;;;;;;;;;;19.20;73.40;;;;;;5040782;28;19941;-72
2023/09/19 08:45:27;;;;;;;;;;;19.20;73.30;;;;;;5040774;28;19933;-68
2023/09/19 08:48:05;;;;;;;;;;;19.20;72.80;;;;;;5039445;28;19929;-68
2023/09/19 08:50:43;;;;;;;;;;;19.30;72.50;;;;;;5034149;28;19932;-69
2023/09/19 08:53:20;;;;;;;;;;;19.30;72.00;;;;;;5029542;28;19980;-69
2023/09/19 08:55:56;;;;;;;;;;;19.30;72.20;;;;;;5027810;28;19983;-69
2023/09/19 08:58:35;;;;;;;;;;;19.40;71.70;;;;;;5024342;28;19969;-68
2023/09/19 09:01:10;;;;;;;;;;;19.40;71.60;;;;;;5023376;28;19975;-68
2023/09/19 09:03:46;;;;;;;;;;;19.40;71.60;;;;;;5022510;28;19929;-69
2023/09/19 09:06:20;;;;;;;;;;;19.50;71.50;;;;;;5018593;28;19940;-69
2023/09/19 09:08:54;;;;;;;;;;;19.60;71.40;;;;;;5025469;28;20392;-69
2023/09/19 09:11:28;;;;;;;;;;;19.60;71.00;;;;;;5025719;28;19936;-69
2023/09/19 09:14:02;;;;;;;;;;;19.70;70.40;;;;;;5023777;28;20373;-68
2023/09/19 09:16:35;;;;;;;;;;;19.60;70.20;;;;;;5019693;28;20011;-69
2023/09/19 09:19:08;;;;;;;;;;;19.80;69.30;;;;;;5021914;28;19929;-68
2023/09/19 09:21:41;;;;;;;;;;;19.90;67.60;;;;;;5025261;28;19933;-68
2023/09/19 09:24:27;;;;;;;;;;;20.10;67.60;;;;;;5019168;28;19936;-68
2023/09/19 09:27:02;;;;;;;;;;;20.20;66.90;;;;;;5024811;28;20375;-69
2023/09/19 09:29:44;;;;;;;;;;;20.30;66.00;;;;;;5025800;28;19943;-69
2023/09/19 09:32:19;;;;;;;;;;;20.30;66.00;;;;;;5024634;28;20402;-69
2023/09/19 09:34:46;;;;;;;;;;;20.20;65.90;;;;;;5025628;28;19926;-68
2023/09/19 09:37:20;;;;;;;;;;;20.20;66.00;;;;;;5019632;28;19932;-68
2023/09/19 09:39:56;;;;;;;;;;;20.20;66.60;;;;;;5021158;28;20385;-68
2023/09/19 09:42:32;;;;;;;;;;;20.20;64.80;;;;;;5021676;28;19990;-69
2023/09/19 09:45:28;;;;;;;;;;;20.30;64.10;;;;;;5018936;28;19937;-69
2023/09/19 09:48:03;;;;;;;;;;;20.40;64.20;;;;;;5025459;28;19925;-68
2023/09/19 09:50:44;;;;;;;;;;;20.60;64.40;;;;;;5026133;28;19933;-68
2023/09/19 09:53:25;;;;;;;;;;;20.60;64.60;;;;;;5019727;28;19937;-69
2023/09/19 09:55:59;;;;;;;;;;;20.60;64.40;;;;;;5023107;28;19992;-69
2023/09/19 09:58:33;;;;;;;;;;;20.70;64.40;;;;;;5018695;28;19929;-69
2023/09/19 10:01:15;;;;;;;;;;;20.70;63.90;;;;;;5024778;28;19925;-69
2023/09/19 10:03:49;;;;;;;;;;;20.60;63.30;;;;;;5025772;28;20413;-70
2023/09/19 10:06:26;;;;;;;;;;;20.50;63.40;;;;;;5022889;28;19926;-71
2023/09/19 10:09:10;;;;;;;;;;;20.70;63.70;;;;;;5021045;28;20015;-69
2023/09/19 10:11:44;;;;;;;;;;;20.70;63.10;;;;;;5022135;28;19951;-69
2023/09/19 10:14:23;;;;;;;;;;;20.60;63.20;;;;;;5014931;28;20038;-69
2023/09/19 10:17:03;;;;;;;;;;;20.60;63.40;;;;;;5021231;28;19936;-67
2023/09/19 10:19:38;;;;;;;;;;;20.80;63.30;;;;;;5016940;28;19956;-69
2023/09/19 10:22:12;;;;;;;;;;;20.90;62.70;;;;;;5013647;28;19929;-69
2023/09/19 10:24:46;;;;;;;;;;;21.00;62.50;;;;;;5019641;28;19983;-69
2023/09/19 10:27:21;;;;;;;;;;;21.10;61.90;;;;;;5022680;28;19932;-68
2023/09/19 10:29:55;;;;;;;;;;;21.00;61.20;;;;;;5017610;28;19937;-68
2023/09/19 10:32:33;;;;;;;;;;;21.10;60.70;;;;;;5014224;28;19933;-70
2023/09/19 10:35:06;;;;;;;;;;;21.10;61.00;;;;;;5020622;28;19929;-71
2023/09/19 10:37:41;;;;;;;;;;;21.10;60.80;;;;;;5021740;28;19929;-71
2023/09/19 10:40:16;;;;;;;;;;;21.20;60.40;;;;;;5016304;28;20304;-72
2023/09/19 10:42:49;;;;;;;;;;;21.40;60.20;;;;;;5020335;28;20026;-71
2023/09/19 10:45:29;;;;;;;;;;;21.60;59.90;;;;;;5015961;28;19995;-72
2023/09/19 10:48:05;;;;;;;;;;;21.60;59.80;;;;;;5023676;28;19953;-72
2023/09/19 10:50:46;;;;;;;;;;;21.60;60.00;;;;;;5015813;28;19929;-73
2023/09/19 10:53:21;;;;;;;;;;;21.70;59.30;;;;;;5015624;28;20280;-72
2023/09/19 10:55:57;;;;;;;;;;;21.70;59.30;;;;;;5015845;28;19929;-72
2023/09/19 10:58:34;;;;;;;;;;;21.60;59.10;;;;;;5019749;28;19925;-71
2023/09/19 11:01:11;;;;;;;;;;;21.60;58.90;;;;;;5021972;28;19984;-71
2023/09/19 11:03:48;;;;;;;;;;;21.70;58.80;;;;;;5022559;28;20280;-72
2023/09/19 11:06:22;;;;;;;;;;;21.70;58.60;;;;;;5022555;28;20012;-72
2023/09/19 11:09:10;;;;;;;;;;;21.70;58.70;;;;;;5021081;28;19972;-72
2023/09/19 11:11:46;;;;;;;;;;;21.80;58.20;;;;;;5012359;28;19933;-71
2023/09/19 11:14:38;;;;;;;;;;;21.80;57.80;;;;;;5021331;28;19929;-71
2023/09/19 11:17:42;;;;;;;;;;;21.70;57.70;;;;;;5011354;28;19940;-71
2023/09/19 11:20:43;;;;;;;;;;;21.80;57.80;;;;;;5017072;28;19936;-72
2023/09/19 11:23:18;;;;;;;;;;;21.80;58.10;;;;;;5014466;28;19933;-72
2023/09/19 11:25:53;;;;;;;;;;;21.80;57.70;;;;;;5016974;28;19933;-72
2023/09/19 11:28:30;;;;;;;;;;;21.70;57.30;;;;;;5014444;28;20031;-72
2023/09/19 11:31:22;;;;;;;;;;;21.70;56.90;;;;;;5022464;28;19972;-73
2023/09/19 11:34:10;;;;;;;;;;;21.70;57.00;;;;;;5021392;28;19972;-72
2023/09/19 11:36:45;;;;;;;;;;;21.60;56.90;;;;;;5018017;28;19963;-72
2023/09/19 11:39:26;;;;;;;;;;;21.60;57.10;;;;;;5016360;28;19936;-73
2023/09/19 11:42:00;;;;;;;;;;;21.60;56.80;;;;;;5019680;28;19983;-72
2023/09/19 11:44:36;;;;;;;;;;;21.60;57.20;;;;;;5017949;28;19929;-71
2023/09/19 11:47:12;;;;;;;;;;;21.60;56.00;;;;;;5021829;28;20467;-72
2023/09/19 11:49:45;;;;;;;;;;;21.60;56.80;;;;;;5012307;28;19952;-71
2023/09/19 11:52:24;;;;;;;;;;;21.60;57.30;;;;;;5018718;28;19937;-69
2023/09/19 11:55:04;;;;;;;;;;;21.70;56.30;;;;;;5019446;28;20010;-73
2023/09/19 11:57:41;;;;;;;;;;;21.70;54.70;;;;;;5015986;28;20368;-73
2023/09/19 12:00:18;;;;;;;;;;;21.60;54.70;;;;;;5024069;28;20386;-72
2023/09/19 12:02:56;;;;;;;;;;;21.70;53.90;;;;;;5021504;28;19929;-72
2023/09/19 12:05:29;;;;;;;;;;;21.70;53.50;;;;;;5021247;28;19929;-72
2023/09/19 12:08:07;;;;;;;;;;;21.70;52.70;;;;;;5020004;28;19966;-72
2023/09/19 12:10:50;;;;;;;;;;;21.60;53.30;;;;;;5020529;28;19933;-74
2023/09/19 12:13:24;;;;;;;;;;;21.60;53.70;;;;;;5014715;28;20406;-73
2023/09/19 12:16:00;;;;;;;;;;;21.70;53.90;;;;;;5021896;28;19926;-73
2023/09/19 12:18:35;;;;;;;;;;;21.70;54.30;;;;;;5018427;28;19929;-72
2023/09/19 12:21:12;;;;;;;;;;;21.70;54.30;;;;;;5022035;28;19925;-72
2023/09/19 12:23:57;;;;;;;;;;;21.80;54.40;;;;;;5023525;28;19933;-73
2023/09/19 12:26:33;;;;;;;;;;;21.70;55.30;;;;;;5028180;28;19947;-74
2023/09/19 12:29:11;;;;;;;;;;;21.60;55.10;;;;;;5021426;28;19940;-73
2023/09/19 12:31:51;;;;;;;;;;;21.50;55.00;;;;;;5022458;28;20466;-73
2023/09/19 12:34:27;;;;;;;;;;;21.50;55.40;;;;;;5014326;28;19940;-73
2023/09/19 12:37:11;;;;;;;;;;;21.60;56.20;;;;;;5015227;28;19932;-72
2023/09/19 12:39:48;;;;;;;;;;;21.60;55.90;;;;;;5020058;28;20404;-73
2023/09/19 12:42:23;;;;;;;;;;;21.60;55.60;;;;;;5016169;28;19930;-73
2023/09/19 12:44:56;;;;;;;;;;;21.60;55.90;;;;;;5018816;28;20288;-72
2023/09/19 12:47:30;;;;;;;;;;;21.70;55.70;;;;;;5008296;28;19925;-72
2023/09/19 12:50:12;;;;;;;;;;;21.80;54.80;;;;;;5008435;28;19987;-73
2023/09/19 12:52:47;;;;;;;;;;;21.70;54.50;;;;;;5020236;28;19937;-71
2023/09/19 12:55:23;;;;;;;;;;;21.70;53.90;;;;;;5016836;28;20656;-74
2023/09/19 12:58:01;;;;;;;;;;;21.70;54.00;;;;;;5019314;28;19933;-72
2023/09/19 13:00:35;;;;;;;;;;;21.60;54.30;;;;;;5012988;28;19929;-73
2023/09/19 13:03:21;;;;;;;;;;;21.60;54.00;;;;;;5013723;28;19942;-71
2023/09/19 13:05:55;;;;;;;;;;;21.60;54.50;;;;;;5020343;28;20386;-73
2023/09/19 13:08:31;;;;;;;;;;;21.50;55.20;;;;;;5016812;28;19933;-72
2023/09/19 13:11:13;;;;;;;;;;;21.50;55.20;;;;;;5019181;28;19929;-73
2023/09/19 13:13:48;;;;;;;;;;;21.50;55.50;;;;;;5009958;28;20414;-72
2023/09/19 13:16:24;;;;;;;;;;;21.50;55.50;;;;;;5020035;28;19941;-73
2023/09/19 13:18:57;;;;;;;;;;;21.50;54.90;;;;;;5025713;28;19933;-73
2023/09/19 13:21:36;;;;;;;;;;;21.40;54.70;;;;;;5014766;28;19948;-73
2023/09/19 13:24:19;;;;;;;;;;;21.30;54.60;;;;;;5019898;28;19926;-72
2023/09/19 13:26:54;;;;;;;;;;;21.40;54.60;;;;;;5021662;28;19934;-73
2023/09/19 13:29:27;;;;;;;;;;;21.40;54.90;;;;;;5018581;28;20130;-72
2023/09/19 13:32:02;;;;;;;;;;;21.50;55.00;;;;;;5021970;28;20009;-73
2023/09/19 13:34:34;;;;;;;;;;;21.50;55.20;;;;;;5024283;28;20022;-72
2023/09/19 13:37:07;;;;;;;;;;;21.60;55.40;;;;;;5014279;28;19944;-73
2023/09/19 13:39:42;;;;;;;;;;;21.50;55.40;;;;;;5023898;28;19944;-73
2023/09/19 13:42:18;;;;;;;;;;;21.50;54.50;;;;;;5023513;28;20048;-72
2023/09/19 13:44:53;;;;;;;;;;;21.40;54.40;;;;;;5021064;28;20449;-73
2023/09/19 13:47:26;;;;;;;;;;;21.40;54.60;;;;;;5017919;28;19926;-72
2023/09/19 13:50:00;;;;;;;;;;;21.40;54.20;;;;;;5021613;28;19925;-73
2023/09/19 13:52:34;;;;;;;;;;;21.40;54.40;;;;;;5015029;28;20023;-73
2023/09/19 13:55:08;;;;;;;;;;;21.40;54.00;;;;;;5018746;28;19929;-73
2023/09/19 13:57:43;;;;;;;;;;;21.40;53.90;;;;;;5019606;28;19925;-73
2023/09/19 14:00:17;;;;;;;;;;;21.40;54.30;;;;;;5012132;28;20396;-73
2023/09/19 14:02:50;;;;;;;;;;;21.30;55.20;;;;;;5022940;28;19983;-78
2023/09/19 14:05:27;;;;;;;;;;;21.30;54.30;;;;;;5021265;28;20024;-78
2023/09/19 14:07:55;;;;;;;;;;;21.30;54.40;;;;;;5020967;28;19968;-79
2023/09/19 14:10:30;;;;;;;;;;;21.30;54.50;;;;;;5018565;28;19940;-74
2023/09/19 14:13:05;;;;;;;;;;;21.30;54.50;;;;;;5016643;28;19925;-79
2023/09/19 14:15:38;;;;;;;;;;;21.30;54.90;;;;;;5017357;28;20291;-79
2023/09/19 14:18:11;;;;;;;;;;;21.20;54.10;;;;;;5018506;28;19944;-79
2023/09/19 14:20:44;;;;;;;;;;;21.30;54.20;;;;;;5018365;28;19933;-77
2023/09/19 14:23:16;;;;;;;;;;;21.20;54.60;;;;;;5020101;28;19929;-78
2023/09/19 14:25:50;;;;;;;;;;;21.10;55.10;;;;;;5017357;28;20390;-77
2023/09/19 14:28:25;;;;;;;;;;;21.10;55.20;;;;;;5021046;28;19929;-77
2023/09/19 14:30:59;;;;;;;;;;;21.10;55.40;;;;;;5013668;28;19930;-78
2023/09/19 14:33:33;;;;;;;;;;;21.10;54.70;;;;;;5018790;28;19925;-78
2023/09/19 14:36:06;;;;;;;;;;;21.10;54.20;;;;;;5019986;28;19952;-76
2023/09/19 14:38:40;;;;;;;;;;;21.00;54.60;;;;;;5021827;28;19925;-79
2023/09/19 14:41:12;;;;;;;;;;;21.00;53.90;;;;;;5016504;28;19933;-78
2023/09/19 14:43:47;;;;;;;;;;;21.00;54.30;;;;;;5013987;28;20023;-78
2023/09/19 14:46:21;;;;;;;;;;;21.10;54.40;;;;;;5015841;28;19925;-78
2023/09/19 14:48:54;;;;;;;;;;;21.00;55.00;;;;;;5025352;28;19925;-78
2023/09/19 14:51:27;;;;;;;;;;;21.00;54.40;;;;;;5021021;28;19933;-79
2023/09/19 14:54:01;;;;;;;;;;;20.90;54.70;;;;;;5020453;28;19925;-78
2023/09/19 14:56:29;;;;;;;;;;;20.90;55.20;;;;;;5018310;28;19941;-75
2023/09/19 14:59:04;;;;;;;;;;;20.90;55.40;;;;;;5017784;28;19926;-81
2023/09/19 15:01:38;;;;;;;;;;;20.90;54.70;;;;;;5025515;28;19933;-77
2023/09/19 15:04:12;;;;;;;;;;;21.00;54.60;;;;;;5026722;28;19933;-77